Time;durP1;ratioP1;P1;durP2;ratioP2;P2;SDS_P1;SDS_P2;PMS_P1;PMS_P2;Temp;Humidity;BMP_temperature;BMP_pressure;BME280_temperature;BME280_humidity;BME280_pressure;Samples;Min_cycle;Max_cycle;Signal;HPM_P1;HPM_P2
2023/03/04 00:01:00;;;;;;;13.43;7.87;;;;;;;3.35;nan;-23909.69;5030099;28;20182;-73
2023/03/04 00:03:26;;;;;;;20.40;10.13;;;;;;;3.59;nan;-23916.41;5030428;28;20179;-72
2023/03/04 00:05:51;;;;;;;18.43;9.73;;;;;;;3.59;nan;-23916.41;5031960;28;20203;-72
2023/03/04 00:08:17;;;;;;;19.17;8.93;;;;;;;3.37;nan;-23910.41;5031850;28;20245;-73
2023/03/04 00:10:42;;;;;;;14.20;8.70;;;;;;;3.44;nan;-23912.41;5030302;28;20245;-72
2023/03/04 00:13:08;;;;;;;13.50;9.97;;;;;;;2.89;nan;-23896.72;5032680;28;20190;-72
2023/03/04 00:15:33;;;;;;;29.27;10.50;;;;;;;3.58;nan;-23916.13;5031450;28;20634;-73
2023/03/04 00:17:58;;;;;;;18.63;10.03;;;;;;;3.47;nan;-23913.25;5030194;28;20211;-72
2023/03/04 00:20:24;;;;;;;22.50;9.97;;;;;;;3.61;nan;-23916.97;5029543;28;20214;-73
2023/03/04 00:22:49;;;;;;;19.80;10.20;;;;;;;3.61;nan;-23916.97;5046603;28;20249;-73
2023/03/04 00:25:15;;;;;;;17.13;8.93;;;;;;;3.16;nan;-23904.28;5031040;28;20179;-72
2023/03/04 00:27:40;;;;;;;20.47;10.50;;;;;;;3.31;nan;-23908.56;5031329;28;20198;-73
2023/03/04 00:30:07;;;;;;;25.40;10.37;;;;;;;3.28;nan;-23907.72;5031681;28;20251;-72
2023/03/04 00:32:32;;;;;;;17.97;10.07;;;;;;;3.18;nan;-23904.84;5030057;28;20183;-73
2023/03/04 00:34:57;;;;;;;17.67;10.47;;;;;;;2.91;nan;-23897.28;5031150;28;20237;-72
2023/03/04 00:37:23;;;;;;;15.93;10.03;;;;;;;2.97;nan;-23899.00;5033985;28;20260;-72
2023/03/04 00:39:48;;;;;;;19.40;9.37;;;;;;;3.13;nan;-23903.56;5035244;28;20175;-73
2023/03/04 00:42:14;;;;;;;18.80;10.73;;;;;;;3.23;nan;-23906.28;5035962;28;20466;-72
2023/03/04 00:44:39;;;;;;;14.43;9.10;;;;;;;3.20;nan;-23905.41;5035836;28;20190;-73
2023/03/04 00:47:05;;;;;;;22.63;9.87;;;;;;;2.86;nan;-23895.88;5034026;28;20182;-73
2023/03/04 00:49:30;;;;;;;26.03;10.30;;;;;;;3.11;nan;-23903.00;5035153;28;20186;-73
2023/03/04 00:51:56;;;;;;;13.33;8.20;;;;;;;3.06;nan;-23901.56;5035078;28;20197;-73
2023/03/04 00:54:21;;;;;;;19.50;9.17;;;;;;;2.96;nan;-23898.72;5033581;28;20241;-73
2023/03/04 00:56:47;;;;;;;17.40;9.27;;;;;;;3.13;nan;-23903.44;5035037;28;20199;-72
2023/03/04 00:59:12;;;;;;;26.77;10.03;;;;;;;3.06;nan;-23901.56;5035110;28;20527;-73
2023/03/04 01:01:38;;;;;;;19.50;10.50;;;;;;;3.13;nan;-23903.44;5033972;28;20190;-72
2023/03/04 01:04:03;;;;;;;21.90;9.13;;;;;;;3.06;nan;-23901.72;5035150;28;20551;-73
2023/03/04 01:06:29;;;;;;;27.23;9.37;;;;;;;2.89;nan;-23896.88;5034836;28;20592;-73
2023/03/04 01:08:54;;;;;;;16.87;9.53;;;;;;;2.94;nan;-23898.28;5034899;28;20168;-73
2023/03/04 01:11:20;;;;;;;17.23;8.50;;;;;;;2.69;nan;-23891.16;5035351;28;20286;-73
2023/03/04 01:13:45;;;;;;;16.53;9.43;;;;;;;2.79;nan;-23894.00;5035220;28;20182;-72
2023/03/04 01:16:11;;;;;;;17.50;8.73;;;;;;;2.92;nan;-23897.72;5036526;28;20233;-73
2023/03/04 01:18:37;;;;;;;26.00;9.57;;;;;;;2.99;nan;-23899.56;5033136;28;20214;-72
2023/03/04 01:21:03;;;;;;;17.30;9.77;;;;;;;2.87;nan;-23896.28;5034129;28;20179;-73
2023/03/04 01:23:29;;;;;;;18.33;9.80;;;;;;;2.93;nan;-23897.88;5034466;28;20164;-72
2023/03/04 01:25:54;;;;;;;15.67;9.80;;;;;;;3.29;nan;-23908.00;5034612;28;20212;-72
2023/03/04 01:28:20;;;;;;;18.03;10.27;;;;;;;3.20;nan;-23905.56;5034108;28;20186;-72
2023/03/04 01:30:45;;;;;;;12.37;8.40;;;;;;;3.42;nan;-23911.69;5034654;28;20255;-73
2023/03/04 01:33:10;;;;;;;29.37;10.87;;;;;;;3.13;nan;-23903.56;5034491;28;20171;-73
2023/03/04 01:35:36;;;;;;;18.43;8.97;;;;;;;3.29;nan;-23908.00;5033130;28;20183;-73
2023/03/04 01:38:01;;;;;;;20.97;10.60;;;;;;;3.38;nan;-23910.69;5032814;28;20234;-73
2023/03/04 01:40:27;;;;;;;17.73;8.07;;;;;;;3.35;nan;-23909.84;5032690;28;20183;-72
2023/03/04 01:42:52;;;;;;;18.67;8.83;;;;;;;3.06;nan;-23901.72;5034054;28;20183;-73
2023/03/04 01:45:19;;;;;;;18.23;9.63;;;;;;;3.34;nan;-23909.56;5033226;28;20202;-72
2023/03/04 01:47:50;;;;;;;17.00;8.80;;;;;;;3.50;nan;-23913.97;5034339;28;20223;-73
2023/03/04 01:50:28;;;;;;;13.20;8.83;;;;;;;3.48;nan;-23913.56;5032948;28;20172;-73
2023/03/04 01:52:54;;;;;;;22.90;10.67;;;;;;;3.47;nan;-23913.13;5034117;28;20629;-72
2023/03/04 01:55:21;;;;;;;33.97;10.87;;;;;;;3.55;nan;-23915.53;5034074;28;20253;-73
2023/03/04 01:57:49;;;;;;;21.33;9.33;;;;;;;3.32;nan;-23908.84;5034028;28;20245;-72
2023/03/04 02:00:33;;;;;;;12.93;8.30;;;;;;;3.59;nan;-23916.53;5033983;28;20175;-72
2023/03/04 02:03:12;;;;;;;19.17;10.20;;;;;;;3.21;nan;-23905.72;5033949;28;20166;-73
2023/03/04 02:05:41;;;;;;;15.67;9.13;;;;;;;3.31;nan;-23908.72;5032538;28;20171;-73
2023/03/04 02:08:08;;;;;;;19.30;9.00;;;;;;;3.27;nan;-23907.56;5025349;28;20180;-72
2023/03/04 02:10:34;;;;;;;15.63;10.07;;;;;;;3.63;nan;-23917.69;5021775;28;20195;-72
2023/03/04 02:13:00;;;;;;;17.70;10.67;;;;;;;3.62;nan;-23917.41;5031965;28;20182;-72
2023/03/04 02:15:27;;;;;;;29.30;11.13;;;;;;;3.79;nan;-23922.09;5033074;28;20167;-73
2023/03/04 02:17:52;;;;;;;18.90;8.73;;;;;;;3.67;nan;-23918.69;5032991;28;20203;-73
2023/03/04 02:20:37;;;;;;;23.53;10.43;;;;;;;3.44;nan;-23912.25;5035065;28;20548;-72
2023/03/04 02:23:13;;;;;;;18.80;9.73;;;;;;;3.15;nan;-23904.00;5033687;28;20168;-72
2023/03/04 02:25:54;;;;;;;18.77;11.63;;;;;;;3.42;nan;-23911.69;5032856;28;20197;-72
2023/03/04 02:28:19;;;;;;;15.90;9.33;;;;;;;2.87;nan;-23896.16;5031502;28;20641;-72
2023/03/04 02:30:45;;;;;;;21.87;9.83;;;;;;;3.00;nan;-23899.88;5032697;28;20231;-73
2023/03/04 02:33:16;;;;;;;19.43;10.83;;;;;;;3.31;nan;-23908.72;5032983;28;20661;-74
2023/03/04 02:35:42;;;;;;;25.70;11.13;;;;;;;3.32;nan;-23909.00;5031399;28;20237;-73
2023/03/04 02:38:09;;;;;;;17.23;10.27;;;;;;;3.41;nan;-23911.56;5031656;28;20203;-73
2023/03/04 02:40:36;;;;;;;22.30;10.93;;;;;;;3.11;nan;-23903.00;5032300;28;20736;-73
2023/03/04 02:43:01;;;;;;;17.83;9.63;;;;;;;3.09;nan;-23902.56;5032522;28;20249;-73
2023/03/04 02:45:48;;;;;;;17.67;10.03;;;;;;;2.98;nan;-23899.44;5033346;28;20230;-72
2023/03/04 02:48:15;;;;;;;18.97;9.17;;;;;;;2.53;nan;-23886.59;5033062;28;20182;-72
2023/03/04 02:50:44;;;;;;;12.07;8.97;;;;;;;2.86;nan;-23896.00;5032927;28;20167;-72
2023/03/04 02:53:10;;;;;;;19.33;8.37;;;;;;;2.71;nan;-23891.59;5032357;28;20168;-72
2023/03/04 02:55:36;;;;;;;16.83;7.50;;;;;;;2.35;nan;-23881.59;5031666;28;20279;-72
2023/03/04 02:58:02;;;;;;;21.43;9.70;;;;;;;2.62;nan;-23889.31;5031736;28;20252;-72
2023/03/04 03:00:28;;;;;;;24.33;10.30;;;;;;;2.62;nan;-23889.16;5032140;28;20630;-73
2023/03/04 03:02:55;;;;;;;15.17;9.20;;;;;;;2.52;nan;-23886.44;5032856;28;20657;-72
2023/03/04 03:05:23;;;;;;;21.43;9.40;;;;;;;2.60;nan;-23888.59;5047986;28;20214;-72
2023/03/04 03:07:48;;;;;;;14.57;8.13;;;;;;;2.56;nan;-23887.44;5047108;28;20293;-73
2023/03/04 03:10:14;;;;;;;13.47;7.60;;;;;;;2.75;nan;-23892.72;5032397;28;20171;-72
2023/03/04 03:12:39;;;;;;;11.33;6.57;;;;;;;2.40;nan;-23883.03;5032427;28;20250;-72
2023/03/04 03:15:06;;;;;;;13.23;7.80;;;;;;;0.79;nan;-23837.56;5032385;28;20277;-73
2023/03/04 03:17:31;;;;;;;9.43;7.00;;;;;;;2.65;nan;-23890.00;5032088;28;20195;-72
2023/03/04 03:19:56;;;;;;;13.97;8.07;;;;;;;2.65;nan;-23890.00;5031017;28;20573;-72
2023/03/04 03:22:22;;;;;;;9.77;6.10;;;;;;;2.62;nan;-23889.31;5033578;28;20173;-73
2023/03/04 03:24:47;;;;;;;14.40;7.57;;;;;;;2.65;nan;-23890.16;5032885;28;20179;-72
2023/03/04 03:27:12;;;;;;;16.73;8.83;;;;;;;1.71;nan;-23863.59;5031973;28;20183;-73
2023/03/04 03:29:38;;;;;;;11.83;8.43;;;;;;;2.76;nan;-23893.00;5031097;28;20180;-73
2023/03/04 03:32:03;;;;;;;14.07;9.10;;;;;;;2.35;nan;-23881.59;5032100;28;20563;-73
2023/03/04 03:34:29;;;;;;;16.67;9.07;;;;;;;2.68;nan;-23891.00;5030628;28;20266;-72
2023/03/04 03:36:54;;;;;;;13.37;6.80;;;;;;;2.41;nan;-23883.16;5031890;28;20195;-73
2023/03/04 03:39:21;;;;;;;18.17;8.20;;;;;;;2.48;nan;-23885.16;5032357;28;20207;-72
2023/03/04 03:41:46;;;;;;;13.17;7.80;;;;;;;2.02;nan;-23872.31;5047420;28;20229;-72
2023/03/04 03:44:12;;;;;;;11.93;6.80;;;;;;;2.39;nan;-23882.59;5030815;28;20180;-72
2023/03/04 03:46:37;;;;;;;12.73;8.07;;;;;;;1.98;nan;-23871.19;5032216;28;20178;-72
2023/03/04 03:49:02;;;;;;;17.50;6.77;;;;;;;2.46;nan;-23884.59;5031615;28;20172;-73
2023/03/04 03:51:28;;;;;;;14.97;7.93;;;;;;;2.18;nan;-23876.88;5031290;28;20243;-73
2023/03/04 03:53:53;;;;;;;18.03;9.07;;;;;;;2.53;nan;-23886.75;5031663;28;20259;-72
2023/03/04 03:56:19;;;;;;;12.40;8.20;;;;;;;2.68;nan;-23891.00;5031491;28;20635;-72
2023/03/04 03:58:44;;;;;;;18.33;8.00;;;;;;;2.80;nan;-23894.31;5031376;28;20285;-72
2023/03/04 04:01:09;;;;;;;19.20;8.87;;;;;;;2.25;nan;-23878.75;5031925;28;20202;-73
2023/03/04 04:03:35;;;;;;;14.10;8.03;;;;;;;2.28;nan;-23879.59;5031380;28;20630;-71
2023/03/04 04:06:00;;;;;;;23.47;10.37;;;;;;;2.11;nan;-23874.75;5031240;28;20179;-73
2023/03/04 04:08:26;;;;;;;20.23;10.27;;;;;;;2.45;nan;-23884.44;5031992;28;20316;-73
2023/03/04 04:10:51;;;;;;;25.73;8.33;;;;;;;2.16;nan;-23876.16;5031189;28;20207;-73
2023/03/04 04:13:17;;;;;;;21.83;8.67;;;;;;;2.52;nan;-23886.44;5031528;28;20643;-73
2023/03/04 04:15:42;;;;;;;14.23;8.37;;;;;;;2.23;nan;-23878.16;5031402;28;20654;-73
2023/03/04 04:18:08;;;;;;;28.80;9.27;;;;;;;2.15;nan;-23875.88;5031437;28;20257;-72
2023/03/04 04:20:34;;;;;;;13.10;7.60;;;;;;;2.15;nan;-23875.88;5029836;28;20180;-73
2023/03/04 04:23:00;;;;;;;14.70;8.30;;;;;;;2.52;nan;-23886.44;5030036;28;20183;-72
2023/03/04 04:25:26;;;;;;;20.50;9.40;;;;;;;2.50;nan;-23885.88;5030514;28;20271;-72
2023/03/04 04:27:52;;;;;;;19.43;9.10;;;;;;;2.41;nan;-23883.16;5031822;28;20677;-72
2023/03/04 04:30:17;;;;;;;18.97;8.33;;;;;;;2.35;nan;-23881.47;5031246;28;20632;-72
2023/03/04 04:32:43;;;;;;;15.70;10.17;;;;;;;2.25;nan;-23878.75;5030314;28;20179;-72
2023/03/04 04:35:08;;;;;;;17.93;9.97;;;;;;;2.61;nan;-23888.88;5030966;28;20167;-73
2023/03/04 04:37:34;;;;;;;17.83;9.83;;;;;;;2.71;nan;-23891.72;5046827;28;20203;-72
2023/03/04 04:39:59;;;;;;;20.17;8.20;;;;;;;2.74;nan;-23892.44;5031349;28;20168;-73
2023/03/04 04:42:26;;;;;;;16.93;10.60;;;;;;;2.62;nan;-23889.31;5031625;28;20181;-73
2023/03/04 04:44:51;;;;;;;16.67;8.83;;;;;;;2.30;nan;-23880.16;5030269;28;20179;-72
2023/03/04 04:47:17;;;;;;;15.00;7.87;;;;;;;2.70;nan;-23891.31;5029894;28;20187;-72
2023/03/04 04:49:43;;;;;;;19.90;9.03;;;;;;;2.37;nan;-23882.16;5031299;28;20177;-73
2023/03/04 04:52:09;;;;;;;19.33;9.20;;;;;;;2.93;nan;-23897.88;5029288;28;20337;-73
2023/03/04 04:54:35;;;;;;;15.80;8.87;;;;;;;2.71;nan;-23891.72;5031873;28;20310;-73
2023/03/04 04:57:00;;;;;;;18.73;8.93;;;;;;;2.82;nan;-23894.88;5031254;28;20658;-72
2023/03/04 04:59:26;;;;;;;15.80;8.03;;;;;;;2.48;nan;-23885.31;5031145;28;20604;-73
2023/03/04 05:01:51;;;;;;;19.10;9.63;;;;;;;2.01;nan;-23872.03;5030492;28;20179;-72
2023/03/04 05:04:16;;;;;;;22.73;9.90;;;;;;;1.90;nan;-23868.75;5031269;28;20184;-72
2023/03/04 05:06:42;;;;;;;23.63;9.63;;;;;;;2.09;nan;-23874.16;5031614;28;20294;-73
2023/03/04 05:09:07;;;;;;;17.47;10.80;;;;;;;0.84;nan;-23838.88;5031350;28;20175;-73
2023/03/04 05:11:33;;;;;;;26.90;10.93;;;;;;;2.11;nan;-23874.75;5031228;28;20557;-73
2023/03/04 05:13:58;;;;;;;17.20;10.30;;;;;;;1.90;nan;-23868.88;5029863;28;20649;-73
2023/03/04 05:16:24;;;;;;;17.80;11.00;;;;;;;1.98;nan;-23871.03;5029669;28;20176;-71
2023/03/04 05:18:49;;;;;;;26.43;11.07;;;;;;;2.35;nan;-23881.59;5029433;28;20210;-72
2023/03/04 05:21:14;;;;;;;31.20;12.63;;;;;;;1.98;nan;-23871.03;5029427;28;20186;-73
2023/03/04 05:23:42;;;;;;;19.07;10.40;;;;;;;1.87;nan;-23867.88;5034124;28;20179;-73
2023/03/04 05:26:10;;;;;;;19.63;9.97;;;;;;;2.20;nan;-23877.47;5034637;28;20171;-72
2023/03/04 05:28:36;;;;;;;23.73;9.53;;;;;;;1.82;nan;-23866.47;5034562;28;20175;-72
2023/03/04 05:31:02;;;;;;;28.97;10.50;;;;;;;1.62;nan;-23860.88;5034723;28;20271;-72
2023/03/04 05:33:27;;;;;;;27.37;10.30;;;;;;;1.80;nan;-23866.03;5034431;28;20662;-73
2023/03/04 05:35:53;;;;;;;23.90;8.07;;;;;;;1.57;nan;-23859.47;5034808;28;20610;-72
2023/03/04 05:38:20;;;;;;;20.63;8.70;;;;;;;1.40;nan;-23854.75;5033248;28;20207;-72
2023/03/04 05:40:46;;;;;;;21.90;10.33;;;;;;;1.81;nan;-23866.31;5016255;28;20612;-72
2023/03/04 05:43:13;;;;;;;16.50;8.97;;;;;;;2.13;nan;-23875.31;5030134;28;20187;-72
2023/03/04 05:45:39;;;;;;;20.90;8.60;;;;;;;2.07;nan;-23873.59;5034425;28;20198;-73
2023/03/04 05:48:05;;;;;;;19.27;9.30;;;;;;;2.07;nan;-23873.59;5033421;28;20163;-72
2023/03/04 05:50:31;;;;;;;24.77;9.33;;;;;;;2.53;nan;-23886.59;5033741;28;20168;-73
2023/03/04 05:52:56;;;;;;;24.13;9.33;;;;;;;2.45;nan;-23884.31;5032419;28;20172;-72
2023/03/04 05:55:22;;;;;;;20.53;9.23;;;;;;;2.51;nan;-23886.16;5034042;28;20298;-72
2023/03/04 05:57:47;;;;;;;14.53;8.40;;;;;;;2.59;nan;-23888.31;5033738;28;20286;-72
2023/03/04 06:00:14;;;;;;;20.90;8.43;;;;;;;2.49;nan;-23885.59;5033414;28;20176;-72
2023/03/04 06:02:41;;;;;;;13.37;5.70;;;;;;;2.72;nan;-23892.03;5032222;28;20172;-73
2023/03/04 06:05:07;;;;;;;17.03;8.07;;;;;;;3.16;nan;-23904.28;5049082;28;20673;-72
2023/03/04 06:07:33;;;;;;;16.77;7.43;;;;;;;2.95;nan;-23898.59;5033744;28;20179;-72
2023/03/04 06:09:59;;;;;;;14.97;7.90;;;;;;;2.78;nan;-23893.72;5033472;28;20306;-72
2023/03/04 06:12:24;;;;;;;12.13;6.27;;;;;;;3.00;nan;-23900.00;5031086;28;20669;-72
2023/03/04 06:14:49;;;;;;;17.10;6.70;;;;;;;2.97;nan;-23899.00;5033226;28;20543;-72
2023/03/04 06:17:15;;;;;;;13.93;7.50;;;;;;;3.07;nan;-23902.00;5033104;28;20278;-73
2023/03/04 06:19:41;;;;;;;14.10;7.67;;;;;;;3.10;nan;-23902.72;5033939;28;20250;-73
2023/03/04 06:22:08;;;;;;;10.87;7.33;;;;;;;2.96;nan;-23898.88;5033627;28;20254;-72
2023/03/04 06:24:34;;;;;;;13.50;7.50;;;;;;;2.57;nan;-23887.88;5033435;28;20175;-73
2023/03/04 06:27:00;;;;;;;21.03;8.87;;;;;;;3.15;nan;-23904.13;5032574;28;20175;-73
2023/03/04 06:29:25;;;;;;;16.60;9.10;;;;;;;3.18;nan;-23905.00;5033585;28;20167;-73
2023/03/04 06:31:51;;;;;;;18.97;9.33;;;;;;;2.94;nan;-23898.28;5033319;28;20177;-72
2023/03/04 06:34:16;;;;;;;18.93;8.50;;;;;;;2.92;nan;-23897.72;5033350;28;20177;-73
2023/03/04 06:36:42;;;;;;;14.63;8.70;;;;;;;3.17;nan;-23904.72;5034127;28;20172;-73
2023/03/04 06:39:07;;;;;;;17.57;8.93;;;;;;;3.39;nan;-23910.97;5033704;28;20567;-73
2023/03/04 06:41:33;;;;;;;18.20;9.23;;;;;;;3.42;nan;-23911.84;5033079;28;20225;-73
2023/03/04 06:43:59;;;;;;;22.77;9.27;;;;;;;3.54;nan;-23915.25;5033533;28;20167;-73
2023/03/04 06:46:24;;;;;;;22.63;9.77;;;;;;;3.44;nan;-23912.41;5032943;28;20178;-73
2023/03/04 06:48:49;;;;;;;22.40;10.50;;;;;;;3.52;nan;-23914.53;5048884;28;20183;-72
2023/03/04 06:51:15;;;;;;;24.60;12.93;;;;;;;3.82;nan;-23922.97;5033203;28;20175;-73
2023/03/04 06:53:41;;;;;;;21.57;10.27;;;;;;;3.86;nan;-23924.09;5019971;28;20300;-73
2023/03/04 06:56:10;;;;;;;23.87;11.00;;;;;;;4.18;nan;-23933.22;5013283;28;20183;-73
2023/03/04 06:58:36;;;;;;;24.77;11.63;;;;;;;4.51;nan;-23942.47;5013801;28;20568;-73
2023/03/04 07:01:22;;;;;;;21.13;11.87;;;;;;;4.39;nan;-23939.19;5013367;28;20168;-72
2023/03/04 07:03:48;;;;;;;24.10;10.43;;;;;;;4.72;nan;-23948.31;5012527;28;20176;-72
2023/03/04 07:06:17;;;;;;;28.37;13.03;;;;;;;5.17;nan;-23961.09;5012991;28;20172;-71
2023/03/04 07:08:42;;;;;;;24.97;10.87;;;;;;;5.40;nan;-23967.38;5012675;28;20695;-72
2023/03/04 07:11:08;;;;;;;33.60;13.37;;;;;;;5.58;nan;-23972.47;5012054;28;20267;-72
2023/03/04 07:13:37;;;;;;;32.23;11.87;;;;;;;5.56;nan;-23972.06;5010915;28;20667;-73
2023/03/04 07:16:03;;;;;;;25.47;11.07;;;;;;;5.79;nan;-23978.44;5013475;28;20524;-73
2023/03/04 07:18:29;;;;;;;29.17;10.60;;;;;;;5.63;nan;-23973.91;5013130;28;20295;-73
2023/03/04 07:20:54;;;;;;;26.23;12.90;;;;;;;5.66;nan;-23974.75;5011701;28;20668;-73
2023/03/04 07:23:20;;;;;;;24.00;10.70;;;;;;;5.87;nan;-23980.72;5010035;28;20715;-74
2023/03/04 07:25:47;;;;;;;24.37;12.53;;;;;;;5.98;nan;-23983.84;5027296;28;20176;-74
2023/03/04 07:28:12;;;;;;;29.70;11.73;;;;;;;5.75;nan;-23977.44;5030603;28;20175;-74
2023/03/04 07:30:38;;;;;;;33.90;12.83;;;;;;;6.12;nan;-23987.81;5032231;28;20626;-74
2023/03/04 07:33:03;;;;;;;28.17;12.70;;;;;;;5.91;nan;-23981.72;5031358;28;20178;-74
2023/03/04 07:35:28;;;;;;;29.97;13.43;;;;;;;6.22;nan;-23990.66;5029781;28;20613;-75
2023/03/04 07:37:54;;;;;;;23.07;11.70;;;;;;;6.32;nan;-23993.22;5030690;28;20291;-75
2023/03/04 07:40:20;;;;;;;21.73;13.23;;;;;;;6.31;nan;-23993.09;5010835;28;20183;-75
2023/03/04 07:42:54;;;;;;;33.33;12.83;;;;;;;6.32;nan;-23993.38;5010167;28;20187;-74
2023/03/04 07:45:19;;;;;;;29.47;13.83;;;;;;;6.38;nan;-23995.06;4992572;28;20240;-74
2023/03/04 07:47:44;;;;;;;27.27;12.57;;;;;;;6.58;nan;-24000.75;4997088;28;20580;-75
2023/03/04 07:50:11;;;;;;;28.80;11.07;;;;;;;6.27;nan;-23991.94;5012395;28;20279;-74
2023/03/04 07:52:41;;;;;;;24.87;13.13;;;;;;;6.50;nan;-23998.34;5012313;28;20728;-75
2023/03/04 07:55:08;;;;;;;25.87;11.30;;;;;;;6.37;nan;-23994.66;5010611;28;20227;-74
2023/03/04 07:57:33;;;;;;;26.47;12.57;;;;;;;6.40;nan;-23995.50;5012946;28;20294;-74
2023/03/04 07:59:59;;;;;;;34.40;12.17;;;;;;;6.50;nan;-23998.47;5010438;28;20267;-74
2023/03/04 08:02:24;;;;;;;26.23;13.13;;;;;;;6.47;nan;-23997.47;5011069;28;20627;-74
2023/03/04 08:04:50;;;;;;;30.83;13.73;;;;;;;6.51;nan;-23998.75;5046403;28;20188;-72
2023/03/04 08:07:15;;;;;;;26.10;12.10;;;;;;;6.00;nan;-23984.28;5044715;28;20190;-73
2023/03/04 08:09:41;;;;;;;24.13;11.93;;;;;;;6.55;nan;-23999.91;5043120;28;20176;-73
2023/03/04 08:12:07;;;;;;;20.60;11.10;;;;;;;6.32;nan;-23993.22;5027314;28;20183;-73
2023/03/04 08:14:33;;;;;;;34.30;14.13;;;;;;;6.42;nan;-23996.22;5010030;28;20179;-72
2023/03/04 08:16:58;;;;;;;28.10;11.53;;;;;;;6.39;nan;-23995.22;5026279;28;20198;-73
2023/03/04 08:19:24;;;;;;;31.57;13.87;;;;;;;6.46;nan;-23997.19;5043792;28;20172;-74
2023/03/04 08:21:49;;;;;;;29.23;11.73;;;;;;;6.26;nan;-23991.66;5011510;28;20211;-74
2023/03/04 08:24:14;;;;;;;26.73;12.90;;;;;;;6.54;nan;-23999.47;5011461;28;20186;-75
2023/03/04 08:26:43;;;;;;;23.83;10.57;;;;;;;6.61;nan;-24001.47;5011474;28;20263;-74
2023/03/04 08:29:12;;;;;;;24.13;13.03;;;;;;;6.89;nan;-24009.41;5011515;28;20171;-74
2023/03/04 08:31:38;;;;;;;29.10;12.50;;;;;;;7.07;nan;-24014.38;5009784;28;20212;-73
2023/03/04 08:34:04;;;;;;;49.13;12.50;;;;;;;7.20;nan;-24017.91;5011294;28;20168;-74
2023/03/04 08:36:29;;;;;;;32.37;12.77;;;;;;;6.93;nan;-24010.53;5011621;28;20187;-73
2023/03/04 08:38:55;;;;;;;32.43;14.33;;;;;;;7.30;nan;-24020.75;5010802;28;20525;-75
2023/03/04 08:41:21;;;;;;;31.43;13.33;;;;;;;7.24;nan;-24019.03;5015624;28;20171;-74
2023/03/04 08:43:47;;;;;;;31.73;13.13;;;;;;;7.80;nan;-24034.91;5013684;28;20183;-75
2023/03/04 08:46:12;;;;;;;33.03;13.23;;;;;;;7.52;nan;-24027.13;5012855;28;20196;-73
2023/03/04 08:48:37;;;;;;;22.17;11.57;;;;;;;7.36;nan;-24022.44;5027930;28;20643;-73
2023/03/04 08:51:11;;;;;;;26.77;13.40;;;;;;;7.53;nan;-24027.41;5012710;28;20259;-73
2023/03/04 08:53:37;;;;;;;29.47;13.07;;;;;;;7.77;nan;-24034.06;5010761;28;20303;-73
2023/03/04 08:56:03;;;;;;;38.83;14.73;;;;;;;7.57;nan;-24028.41;5010932;28;20259;-73
2023/03/04 08:58:29;;;;;;;29.90;13.83;;;;;;;7.99;nan;-24040.16;5013597;28;20210;-74
2023/03/04 09:00:54;;;;;;;28.70;11.90;;;;;;;7.76;nan;-24033.66;5015311;28;20172;-73
2023/03/04 09:03:20;;;;;;;31.77;13.33;;;;;;;7.95;nan;-24039.16;5014579;28;20184;-73
2023/03/04 09:05:47;;;;;;;33.53;14.20;;;;;;;8.06;nan;-24042.00;5015156;28;20246;-73
2023/03/04 09:08:13;;;;;;;29.25;14.32;;;;;;;8.21;nan;-24046.41;5015150;28;20184;-74
2023/03/04 09:10:39;;;;;;;25.50;13.87;;;;;;;8.47;nan;-24053.63;5015389;28;20611;-74
2023/03/04 09:13:05;;;;;;;36.08;16.05;;;;;;;8.66;nan;-24058.84;5046655;28;20179;-74
2023/03/04 09:15:34;;;;;;;24.87;12.63;;;;;;;8.91;nan;-24065.78;5046774;28;20669;-73
2023/03/04 09:18:02;;;;;;;25.58;14.10;;;;;;;8.53;nan;-24055.31;5029795;28;20204;-73
2023/03/04 09:20:28;;;;;;;23.42;12.68;;;;;;;8.82;nan;-24063.53;5046353;28;20188;-74
2023/03/04 09:22:53;;;;;;;38.72;15.23;;;;;;;9.06;nan;-24070.16;5014758;28;20748;-72
2023/03/04 09:25:19;;;;;;;30.23;14.10;;;;;;;9.08;nan;-24070.72;5046210;28;20172;-73
2023/03/04 09:27:44;;;;;;;29.27;13.65;;;;;;;9.43;nan;-24080.50;5014063;28;20172;-73
2023/03/04 09:30:10;;;;;;;25.85;14.02;;;;;;;9.47;nan;-24081.47;5013197;28;20675;-73
2023/03/04 09:32:36;;;;;;;28.83;13.95;;;;;;;9.88;nan;-24092.91;5046025;28;20638;-74
2023/03/04 09:35:01;;;;;;;25.88;13.32;;;;;;;9.85;nan;-24092.22;5007957;28;20230;-74
2023/03/04 09:37:27;;;;;;;29.60;13.05;;;;;;;9.70;nan;-24087.97;5014292;28;20565;-75
2023/03/04 09:39:52;;;;;;;27.65;13.77;;;;;;;9.99;nan;-24096.03;5012857;28;20176;-73
2023/03/04 09:42:37;;;;;;;28.33;14.73;;;;;;;10.39;nan;-24107.31;5015009;28;20263;-74
2023/03/04 09:45:05;;;;;;;36.40;15.68;;;;;;;10.57;nan;-24112.25;5014295;28;20590;-73
2023/03/04 09:47:35;;;;;;;31.15;13.50;;;;;;;10.71;nan;-24116.06;5013633;28;20275;-73
2023/03/04 09:50:05;;;;;;;32.33;13.68;;;;;;;10.99;nan;-24124.13;5014119;28;20180;-74
2023/03/04 09:52:52;;;;;;;31.50;13.98;;;;;;;11.24;nan;-24131.03;5029467;28;20534;-74
2023/03/04 09:55:27;;;;;;;26.60;13.70;;;;;;;11.12;nan;-24127.50;5006234;28;20232;-73
2023/03/04 09:58:14;;;;;;;29.98;13.80;;;;;;;10.90;nan;-24121.56;5013992;28;20192;-73
2023/03/04 10:00:42;;;;;;;27.00;12.35;;;;;;;11.36;nan;-24134.25;5012382;28;20188;-73
2023/03/04 10:03:11;;;;;;;27.35;11.70;;;;;;;11.24;nan;-24131.03;5012198;28;20254;-72
2023/03/04 10:05:39;;;;;;;32.22;14.20;;;;;;;11.35;nan;-24134.13;5013374;28;20230;-73
2023/03/04 10:08:31;;;;;;;29.88;13.43;;;;;;;11.28;nan;-24132.00;5013664;28;20279;-73
2023/03/04 10:10:59;;;;;;;28.05;13.35;;;;;;;11.00;nan;-24124.25;5012880;28;20223;-73
2023/03/04 10:13:52;;;;;;;24.42;12.80;;;;;;;11.02;nan;-24124.81;5028889;28;20265;-73
2023/03/04 10:16:22;;;;;;;22.80;11.70;;;;;;;10.87;nan;-24120.59;5013928;28;20180;-73
2023/03/04 10:19:08;;;;;;;29.40;12.45;;;;;;;10.99;nan;-24123.97;5012129;28;20214;-73
2023/03/04 10:21:43;;;;;;;21.63;10.85;;;;;;;10.82;nan;-24119.19;5013894;28;20301;-74
2023/03/04 10:24:16;;;;;;;26.27;12.10;;;;;;;10.48;nan;-24109.88;5013012;28;20168;-74
2023/03/04 10:26:44;;;;;;;23.90;11.55;;;;;;;10.46;nan;-24109.31;5012914;28;20176;-75
2023/03/04 10:29:19;;;;;;;25.25;11.13;;;;;;;10.95;nan;-24123.00;5013301;28;20242;-74
2023/03/04 10:31:45;;;;;;;29.90;12.25;;;;;;;10.65;nan;-24114.53;5012989;28;20168;-74
2023/03/04 10:34:12;;;;;;;19.80;10.60;;;;;;;10.84;nan;-24119.75;5028263;28;20203;-73
2023/03/04 10:36:47;;;;;;;26.00;9.50;;;;;;;10.72;nan;-24116.34;5013209;28;20238;-74
2023/03/04 10:39:25;;;;;;;24.27;11.27;;;;;;;10.31;nan;-24104.94;5012870;28;20191;-74
2023/03/04 10:42:15;;;;;;;25.25;11.35;;;;;;;10.05;nan;-24097.88;5013223;28;20702;-71
2023/03/04 10:44:43;;;;;;;23.48;10.75;;;;;;;10.35;nan;-24106.19;5025373;28;20274;-72
2023/03/04 10:47:10;;;;;;;24.67;11.40;;;;;;;10.65;nan;-24114.53;5012509;28;20550;-71
2023/03/04 10:49:59;;;;;;;26.00;11.93;;;;;;;10.71;nan;-24116.22;5013752;28;20172;-74
2023/03/04 10:52:33;;;;;;;25.15;10.68;;;;;;;10.82;nan;-24119.31;5011956;28;20180;-72
2023/03/04 10:55:03;;;;;;;21.55;11.50;;;;;;;10.15;nan;-24100.53;5001432;28;20246;-73
2023/03/04 10:57:28;;;;;;;23.67;10.52;;;;;;;10.59;nan;-24112.97;5027918;28;20235;-72
2023/03/04 11:00:20;;;;;;;28.02;11.85;;;;;;;10.62;nan;-24113.81;5013322;28;20238;-72
2023/03/04 11:02:47;;;;;;;21.17;11.13;;;;;;;10.95;nan;-24123.00;5012260;28;20223;-73
2023/03/04 11:05:22;;;;;;;26.08;11.02;;;;;;;11.10;nan;-24126.94;5012841;28;20218;-73
2023/03/04 11:07:55;;;;;;;24.38;11.80;;;;;;;10.93;nan;-24122.41;5013623;28;20166;-72
2023/03/04 11:10:20;;;;;;;34.72;12.10;;;;;;;11.30;nan;-24132.72;5013288;28;20251;-73
2023/03/04 11:12:57;;;;;;;23.20;11.43;;;;;;;11.64;nan;-24142.00;5013321;28;20263;-73
2023/03/04 11:15:26;;;;;;;26.77;10.48;;;;;;;11.59;nan;-24140.75;5011831;28;20180;-73
2023/03/04 11:18:11;;;;;;;18.95;9.90;;;;;;;11.72;nan;-24144.41;5012813;28;20188;-72
2023/03/04 11:20:40;;;;;;;24.95;10.27;;;;;;;11.67;nan;-24143.00;5012740;28;20179;-74
2023/03/04 11:23:47;;;;;;;19.58;9.90;;;;;;;11.85;nan;-24148.06;5012840;28;20168;-73
2023/03/04 11:26:20;;;;;;;19.92;10.85;;;;;;;11.79;nan;-24146.38;5017285;28;20582;-73
2023/03/04 11:29:12;;;;;;;19.27;9.73;;;;;;;11.29;nan;-24132.28;5013167;28;20168;-73
2023/03/04 11:31:50;;;;;;;23.95;11.93;;;;;;;11.62;nan;-24141.59;5012759;28;20184;-73
2023/03/04 11:34:36;;;;;;;23.63;11.10;;;;;;;10.80;nan;-24118.63;5013076;28;20168;-73
2023/03/04 11:37:25;;;;;;;24.83;11.45;;;;;;;11.77;nan;-24145.69;5012934;28;20176;-73
2023/03/04 11:40:00;;;;;;;28.17;12.57;;;;;;;12.09;nan;-24154.69;5014788;28;20220;-72